Time;durP1;ratioP1;P1;durP2;ratioP2;P2;SDS_P1;SDS_P2;PMS_P1;PMS_P2;Temp;Humidity;BMP_temperature;BMP_pressure;BME280_temperature;BME280_humidity;BME280_pressure;Samples;Min_cycle;Max_cycle;Signal;HPM_P1;HPM_P2
2020/12/04 00:01:05;;;;;;;1999.90;999.90;;;;;;;-0.32;70.28;96541.22;5093372;28;20028;-69
2020/12/04 00:03:31;;;;;;;1999.90;999.90;;;;;;;-0.30;70.27;96555.66;5093673;28;20051;-69
2020/12/04 00:05:56;;;;;;;1999.90;999.90;;;;;;;-0.31;70.16;96548.88;5092299;28;20048;-70
2020/12/04 00:08:22;;;;;;;1999.90;999.90;;;;;;;-0.29;70.34;96551.31;5096542;28;20100;-69
2020/12/04 00:10:47;;;;;;;1999.90;999.90;;;;;;;-0.24;69.86;96559.44;5097612;28;20515;-69
2020/12/04 00:13:13;;;;;;;1999.90;999.90;;;;;;;-0.23;70.25;96555.88;5093485;28;20047;-69
2020/12/04 00:15:38;;;;;;;1999.90;999.90;;;;;;;-0.24;69.95;96549.06;5093620;28;20051;-69
2020/12/04 00:18:04;;;;;;;1999.90;999.90;;;;;;;-0.24;70.20;96557.66;5093470;28;20457;-69
2020/12/04 00:20:29;;;;;;;1999.90;999.90;;;;;;;-0.23;69.99;96550.69;5093082;28;20624;-69
2020/12/04 00:22:55;;;;;;;1999.90;999.90;;;;;;;-0.24;69.36;96554.25;5092868;28;20179;-69
2020/12/04 00:25:21;;;;;;;1999.90;999.90;;;;;;;-0.31;69.76;96555.81;5092959;28;20024;-69
2020/12/04 00:27:46;;;;;;;1999.90;999.90;;;;;;;-0.23;70.02;96555.88;5092935;28;20416;-70
2020/12/04 00:30:11;;;;;;;1999.90;999.90;;;;;;;-0.40;69.63;96550.59;5092786;28;20044;-69
2020/12/04 00:32:37;;;;;;;1999.90;999.90;;;;;;;-0.44;70.10;96549.28;5092400;28;20104;-70
2020/12/04 00:35:02;;;;;;;1999.90;999.90;;;;;;;-0.41;69.40;96546.38;5092425;28;20109;-69
2020/12/04 00:37:28;;;;;;;1999.90;999.90;;;;;;;-0.46;70.19;96561.56;5092610;28;20043;-68
2020/12/04 00:39:53;;;;;;;1999.90;999.90;;;;;;;-0.52;69.84;96551.78;5092614;28;20048;-69
2020/12/04 00:42:19;;;;;;;1999.90;999.90;;;;;;;-0.43;69.77;96558.66;5092744;28;20067;-70
2020/12/04 00:44:44;;;;;;;1999.90;999.90;;;;;;;-0.55;70.60;96544.34;5092860;28;20093;-70
2020/12/04 00:47:10;;;;;;;1999.90;999.90;;;;;;;-0.53;71.22;96540.63;5092605;28;20040;-69
2020/12/04 00:49:35;;;;;;;1999.90;999.90;;;;;;;-0.54;70.92;96543.38;5092972;28;20511;-69
2020/12/04 00:52:00;;;;;;;1999.90;999.90;;;;;;;-0.49;71.56;96546.31;5092617;28;20519;-69
2020/12/04 00:54:26;;;;;;;1999.90;999.90;;;;;;;-0.39;71.06;96536.66;5092548;28;20048;-69
2020/12/04 00:56:51;;;;;;;1999.90;999.90;;;;;;;-0.48;71.71;96526.38;5092387;28;20493;-69
2020/12/04 00:59:17;;;;;;;1999.90;999.90;;;;;;;-0.43;71.01;96530.13;5092985;28;20440;-70
2020/12/04 01:01:42;;;;;;;1999.90;999.90;;;;;;;-0.37;70.92;96532.13;5092518;28;20131;-69
2020/12/04 01:04:07;;;;;;;1999.90;999.90;;;;;;;-0.33;71.34;96519.66;5091337;28;20043;-69
2020/12/04 01:06:34;;;;;;;1999.90;999.90;;;;;;;-0.36;70.73;96518.19;5092590;28;20044;-69
2020/12/04 01:09:00;;;;;;;1999.90;999.90;;;;;;;-0.30;70.77;96518.56;5092514;28;20484;-69
2020/12/04 01:11:27;;;;;;;1999.90;999.90;;;;;;;-0.45;71.49;96516.53;5092493;28;20066;-69
2020/12/04 01:13:52;;;;;;;1999.90;999.90;;;;;;;-0.56;71.86;96514.19;5092708;28;20048;-69
2020/12/04 01:16:17;;;;;;;1999.90;999.90;;;;;;;-0.38;71.55;96512.34;5092064;28;20044;-69
2020/12/04 01:18:43;;;;;;;1999.90;999.90;;;;;;;-0.34;71.38;96520.63;5092419;28;20459;-69
2020/12/04 01:21:11;;;;;;;1999.90;999.90;;;;;;;-0.60;72.24;96512.88;5092242;28;20569;-69
2020/12/04 01:23:37;;;;;;;1999.90;999.90;;;;;;;-0.43;71.56;96519.75;5092783;28;20048;-69
2020/12/04 01:26:02;;;;;;;1999.90;999.90;;;;;;;-0.61;72.29;96517.22;5092623;28;20131;-69
2020/12/04 01:28:28;;;;;;;1999.90;999.90;;;;;;;-0.53;72.28;96503.50;5093004;28;20047;-69
2020/12/04 01:30:53;;;;;;;1999.90;999.90;;;;;;;-0.44;71.82;96509.56;5092514;28;20039;-69
2020/12/04 01:33:18;;;;;;;1999.90;999.90;;;;;;;-0.55;72.36;96484.72;5092622;28;20405;-69
2020/12/04 01:35:44;;;;;;;1999.90;999.90;;;;;;;-0.49;72.45;96481.50;5092452;28;20051;-69
2020/12/04 01:38:09;;;;;;;1999.90;999.90;;;;;;;-0.62;72.79;96484.50;5099584;28;20044;-69
2020/12/04 01:40:35;;;;;;;1999.90;999.90;;;;;;;-0.62;73.06;96470.72;5092491;28;20489;-69
2020/12/04 01:43:00;;;;;;;1999.90;999.90;;;;;;;-0.55;72.54;96467.38;5092518;28;20032;-69
2020/12/04 01:45:26;;;;;;;1999.90;999.90;;;;;;;-0.44;72.58;96471.50;5094689;28;20054;-69
2020/12/04 01:47:53;;;;;;;1999.90;999.90;;;;;;;-0.42;72.13;96464.34;5096198;28;20052;-70
2020/12/04 01:50:20;;;;;;;1999.90;999.90;;;;;;;-0.35;72.12;96473.16;5096189;28;20070;-69
2020/12/04 01:52:46;;;;;;;1999.90;999.90;;;;;;;-0.40;71.98;96472.81;5096158;28;20039;-69
2020/12/04 01:55:11;;;;;;;1999.90;999.90;;;;;;;-0.45;72.16;96482.81;5095742;28;20052;-69
2020/12/04 01:57:44;;;;;;;1999.90;999.90;;;;;;;-0.44;71.92;96471.50;5096064;28;20469;-69
2020/12/04 02:00:09;;;;;;;1999.90;999.90;;;;;;;-0.55;72.67;96466.56;5095956;28;20040;-69
2020/12/04 02:02:35;;;;;;;1999.90;999.90;;;;;;;-0.44;71.76;96461.13;5096090;28;20549;-69
2020/12/04 02:05:00;;;;;;;1999.90;999.90;;;;;;;-0.49;72.29;96460.78;5095848;28;20056;-69
2020/12/04 02:07:26;;;;;;;1999.90;999.90;;;;;;;-0.53;71.99;96462.84;5095807;28;20119;-69
2020/12/04 02:09:55;;;;;;;1999.90;999.90;;;;;;;-0.45;72.17;96464.69;5095771;28;20123;-69
2020/12/04 02:12:21;;;;;;;1999.90;999.90;;;;;;;-0.39;71.74;96452.84;5095860;28;20043;-69
2020/12/04 02:14:48;;;;;;;1999.90;999.90;;;;;;;-0.40;71.89;96462.44;5095737;28;20139;-69
2020/12/04 02:17:14;;;;;;;1999.90;999.90;;;;;;;-0.36;71.38;96462.94;5095660;28;20048;-69
2020/12/04 02:19:42;;;;;;;1999.90;999.90;;;;;;;-0.62;72.28;96468.97;5095538;28;20139;-69
2020/12/04 02:22:09;;;;;;;1999.90;999.90;;;;;;;-0.45;71.94;96459.50;5095605;28;20111;-69
2020/12/04 02:24:35;;;;;;;1999.90;999.90;;;;;;;-0.44;72.08;96468.06;5095712;28;20062;-69
2020/12/04 02:27:00;;;;;;;1999.90;999.90;;;;;;;-0.44;71.57;96468.06;5095491;28;20465;-69
2020/12/04 02:29:26;;;;;;;1999.90;999.90;;;;;;;-0.45;71.65;96464.69;5095287;28;20085;-69
2020/12/04 02:31:52;;;;;;;1999.90;999.90;;;;;;;-0.48;72.02;96466.75;5095273;28;20491;-69
2020/12/04 02:34:18;;;;;;;1999.90;999.90;;;;;;;-0.45;71.51;96459.50;5095012;28;20044;-69
2020/12/04 02:36:43;;;;;;;1999.90;999.90;;;;;;;-0.40;71.85;96470.22;5095364;28;20044;-69
2020/12/04 02:39:09;;;;;;;1999.90;999.90;;;;;;;-0.42;71.56;96458.38;5095257;28;20043;-69
2020/12/04 02:41:34;;;;;;;1999.90;999.90;;;;;;;-0.38;71.50;96463.06;5094991;28;20097;-69
2020/12/04 02:44:01;;;;;;;1999.90;999.90;;;;;;;-0.46;71.63;96455.25;5095139;28;20523;-69
2020/12/04 02:46:27;;;;;;;1999.90;999.90;;;;;;;-0.42;71.39;96448.00;5095278;28;20078;-69
2020/12/04 02:48:53;;;;;;;1999.90;999.90;;;;;;;-0.42;71.17;96453.19;5095140;28;20048;-69
2020/12/04 02:51:18;;;;;;;1999.90;999.90;;;;;;;-0.40;71.33;96440.84;5094972;28;20458;-69
2020/12/04 02:53:44;;;;;;;1999.90;999.90;;;;;;;-0.43;70.99;96444.56;5094729;28;20051;-69
2020/12/04 02:56:09;;;;;;;1999.90;999.90;;;;;;;-0.72;71.94;96453.50;5094164;28;20097;-69
2020/12/04 02:58:34;;;;;;;1999.90;999.90;;;;;;;-0.63;72.36;96445.75;5094904;28;20505;-69
2020/12/04 03:01:00;;;;;;;1999.90;999.90;;;;;;;-0.50;72.17;96446.97;5094376;28;20381;-69
2020/12/04 03:03:25;;;;;;;1999.90;999.90;;;;;;;-0.45;71.63;96459.50;5094786;28;20413;-70
2020/12/04 03:05:51;;;;;;;1999.90;999.90;;;;;;;-0.44;71.70;96455.94;5099948;28;20497;-69
2020/12/04 03:08:16;;;;;;;1999.90;999.90;;;;;;;-0.43;71.47;96460.13;5097848;28;20492;-69
2020/12/04 03:10:41;;;;;;;1999.90;999.90;;;;;;;-0.42;71.64;96461.75;5094631;28;20040;-69
2020/12/04 03:13:08;;;;;;;1999.90;999.90;;;;;;;-0.35;70.88;96457.59;5093466;28;20036;-69
2020/12/04 03:15:33;;;;;;;1999.90;999.90;;;;;;;-0.35;71.15;96454.16;5094212;28;20051;-69
2020/12/04 03:17:59;;;;;;;1999.90;999.90;;;;;;;-0.42;71.88;96448.78;5094530;28;20040;-69
2020/12/04 03:20:24;;;;;;;1999.90;999.90;;;;;;;-0.50;70.74;96446.97;5094312;28;20505;-69
2020/12/04 03:22:49;;;;;;;1999.90;999.90;;;;;;;-0.38;71.40;96459.69;5094069;28;20252;-69
2020/12/04 03:25:15;;;;;;;1999.90;999.90;;;;;;;-0.41;71.46;96445.25;5094011;28;20539;-69
2020/12/04 03:27:40;;;;;;;1999.90;999.90;;;;;;;-0.37;71.06;96443.16;5093932;28;20051;-69
2020/12/04 03:30:06;;;;;;;1999.90;999.90;;;;;;;-0.31;71.09;96444.31;5094144;28;20047;-69
2020/12/04 03:32:32;;;;;;;1999.90;999.90;;;;;;;-0.32;70.51;96437.50;5094120;28;20517;-69
2020/12/04 03:34:57;;;;;;;1999.90;999.90;;;;;;;-0.35;71.11;96454.16;5093661;28;20466;-70
2020/12/04 03:37:26;;;;;;;1999.90;999.90;;;;;;;-0.43;71.27;96452.34;5093846;28;20047;-69
2020/12/04 03:39:51;;;;;;;1999.90;999.90;;;;;;;-0.50;71.34;96457.34;5093641;28;20131;-70
2020/12/04 03:42:16;;;;;;;1999.90;999.90;;;;;;;-0.59;71.63;96458.28;5093776;28;20120;-70
2020/12/04 03:44:42;;;;;;;1999.90;999.90;;;;;;;-0.61;71.74;96464.56;5093456;28;20040;-70
2020/12/04 03:47:07;;;;;;;1999.90;999.90;;;;;;;-0.50;71.50;96465.13;5093461;28;20051;-70
2020/12/04 03:49:33;;;;;;;1999.90;999.90;;;;;;;-0.48;71.32;96457.19;5091969;28;20055;-70
2020/12/04 03:51:58;;;;;;;1999.90;999.90;;;;;;;-0.39;71.10;96469.25;5093627;28;20044;-70
2020/12/04 03:54:23;;;;;;;1999.90;999.90;;;;;;;-0.39;70.60;96468.41;5093317;28;20077;-70
2020/12/04 03:56:49;;;;;;;1999.90;999.90;;;;;;;-0.35;70.67;96470.56;5093532;28;20109;-70
2020/12/04 03:59:14;;;;;;;1999.90;999.90;;;;;;;-0.34;70.63;96461.81;5093574;28;20044;-70
2020/12/04 04:01:40;;;;;;;1999.90;999.90;;;;;;;-0.33;70.41;96473.00;5093368;28;20104;-70
2020/12/04 04:04:05;;;;;;;1999.90;999.90;;;;;;;-0.39;70.21;96476.19;5093434;28;20048;-70
2020/12/04 04:06:30;;;;;;;1999.90;999.90;;;;;;;-0.40;70.62;96482.34;5093271;28;20047;-70
2020/12/04 04:08:56;;;;;;;1999.90;999.90;;;;;;;-0.44;70.79;96471.50;5092910;28;20044;-70
2020/12/04 04:11:21;;;;;;;1999.90;999.90;;;;;;;-0.41;71.09;96471.16;5093385;28;20075;-69
2020/12/04 04:13:47;;;;;;;1999.90;999.90;;;;;;;-0.40;70.86;96472.81;5093118;28;20481;-69
2020/12/04 04:16:12;;;;;;;1999.90;999.90;;;;;;;-0.36;70.74;96468.13;5092912;28;20059;-70
2020/12/04 04:18:38;;;;;;;1999.90;999.90;;;;;;;-0.34;70.77;96472.19;5092621;28;20468;-70
2020/12/04 04:21:12;;;;;;;1999.90;999.90;;;;;;;-0.35;70.92;96473.16;5074716;28;20058;-70
2020/12/04 04:23:37;;;;;;;1999.90;999.90;;;;;;;-0.41;70.42;96475.56;5093383;28;20150;-70
2020/12/04 04:26:03;;;;;;;1999.90;999.90;;;;;;;-0.42;70.77;96468.75;5093277;28;20405;-70
2020/12/04 04:28:28;;;;;;;1999.90;999.90;;;;;;;-0.43;70.98;96465.31;5093324;28;20508;-70
2020/12/04 04:30:54;;;;;;;1999.90;999.90;;;;;;;-0.36;70.61;96471.53;5093202;28;20032;-70
2020/12/04 04:33:19;;;;;;;1999.90;999.90;;;;;;;-0.32;71.16;96468.59;5093016;28;20626;-70
2020/12/04 04:35:45;;;;;;;1999.90;999.90;;;;;;;-0.34;70.99;96451.44;5099106;28;20125;-69
2020/12/04 04:38:10;;;;;;;1999.90;999.90;;;;;;;-0.24;71.16;96466.06;5093123;28;20063;-69
2020/12/04 04:40:36;;;;;;;1999.90;999.90;;;;;;;-0.30;71.02;96466.69;5093050;28;20067;-69
2020/12/04 04:43:19;;;;;;;1999.90;999.90;;;;;;;-0.34;71.38;96466.19;5093141;28;20093;-69
2020/12/04 04:45:45;;;;;;;1999.90;999.90;;;;;;;-0.43;71.28;96462.72;5108745;28;20048;-70
2020/12/04 04:48:17;;;;;;;1999.90;999.90;;;;;;;-0.37;71.09;96456.94;5093064;28;20040;-70
2020/12/04 04:50:44;;;;;;;1999.90;999.90;;;;;;;-0.31;70.59;96454.69;5092783;28;20040;-69
2020/12/04 04:53:11;;;;;;;1999.90;999.90;;;;;;;-0.32;70.97;96453.06;5092937;28;20078;-69
2020/12/04 04:55:41;;;;;;;1999.90;999.90;;;;;;;-0.40;70.67;96462.44;5099650;28;20036;-70
2020/12/04 04:58:06;;;;;;;1999.90;999.90;;;;;;;-0.31;70.77;96454.69;5099781;28;20048;-69
2020/12/04 05:00:32;;;;;;;1999.90;999.90;;;;;;;-0.30;70.88;96466.69;5092935;28;20040;-70
2020/12/04 05:02:58;;;;;;;1999.90;999.90;;;;;;;-0.28;70.71;96465.56;5108306;28;20520;-69
2020/12/04 05:05:44;;;;;;;1999.90;999.90;;;;;;;-0.30;70.82;96466.69;5092749;28;20040;-70
2020/12/04 05:08:17;;;;;;;1999.90;999.90;;;;;;;-0.32;71.33;96468.59;5074624;28;20449;-70
2020/12/04 05:10:43;;;;;;;1999.90;999.90;;;;;;;-0.23;70.74;96457.31;5092982;28;20032;-69
2020/12/04 05:13:10;;;;;;;1999.90;999.90;;;;;;;-0.24;70.69;96466.88;5092707;28;20092;-69
2020/12/04 05:15:35;;;;;;;1999.90;999.90;;;;;;;-0.24;70.57;96456.50;5092467;28;20040;-69
2020/12/04 05:18:12;;;;;;;1999.90;999.90;;;;;;;-0.28;70.72;96460.38;5092440;28;20093;-69
2020/12/04 05:20:39;;;;;;;1999.90;999.90;;;;;;;-0.26;70.45;96449.84;5095514;28;20094;-69
2020/12/04 05:23:05;;;;;;;1999.90;999.90;;;;;;;-0.24;69.96;96458.28;5112468;28;20382;-70
2020/12/04 05:25:35;;;;;;;1999.90;999.90;;;;;;;-0.37;70.08;96467.28;5096788;28;20047;-70
2020/12/04 05:28:18;;;;;;;1999.90;999.90;;;;;;;-0.26;69.73;96455.03;5096314;28;20043;-70
2020/12/04 05:31:05;;;;;;;1999.90;999.90;;;;;;;-0.26;69.73;96458.44;5096254;28;20032;-70
2020/12/04 05:33:31;;;;;;;1999.90;999.90;;;;;;;-0.20;69.56;96457.00;5096317;28;20506;-69
2020/12/04 05:35:57;;;;;;;1999.90;999.90;;;;;;;-0.15;69.73;96465.13;5096759;28;20083;-69
2020/12/04 05:38:22;;;;;;;1999.90;999.90;;;;;;;-0.27;70.26;96468.97;5096459;28;20040;-69
2020/12/04 05:41:09;;;;;;;1999.90;999.90;;;;;;;-0.26;70.16;96468.00;5096241;28;20412;-69
2020/12/04 05:43:38;;;;;;;;;;;;;;;-0.42;70.00;96458.38;5096637;28;20040;-70
2020/12/04 05:46:24;;;;;;;1999.90;999.90;;;;;;;-0.31;69.76;96459.88;5096187;28;19916;-70
2020/12/04 05:48:57;;;;;;;;;;;;;;;-0.29;69.61;96453.56;5096574;28;20047;-69
2020/12/04 05:51:25;;;;;;;1999.90;999.90;;;;;;;-0.58;71.73;96466.84;5096175;28;19951;-69
2020/12/04 05:53:52;;;;;;;1999.90;999.90;;;;;;;-0.53;71.98;96464.63;5096256;28;20051;-69
2020/12/04 05:56:18;;;;;;;1999.90;999.90;;;;;;;-0.55;71.83;96469.16;5095914;28;20056;-69
2020/12/04 05:58:48;;;;;;;1999.90;999.90;;;;;;;-0.71;72.47;96468.09;5096069;28;20127;-70
2020/12/04 06:01:20;;;;;;;1999.90;999.90;;;;;;;-0.67;72.37;96472.00;5095778;28;20048;-70
2020/12/04 06:03:54;;;;;;;1999.90;999.90;;;;;;;-0.56;72.41;96467.53;5100183;28;20109;-69
2020/12/04 06:06:31;;;;;;;1999.90;999.90;;;;;;;-0.53;72.41;96477.56;5096410;28;20600;-70
2020/12/04 06:09:04;;;;;;;1999.90;999.90;;;;;;;-0.53;72.73;96470.63;5095987;28;20138;-70
2020/12/04 06:11:32;;;;;;;1999.90;999.90;;;;;;;-0.48;72.85;96464.97;5094551;28;20055;-69
2020/12/04 06:13:59;;;;;;;1999.90;999.90;;;;;;;-0.57;72.28;96476.25;5096042;28;20048;-70
2020/12/04 06:16:24;;;;;;;1999.90;999.90;;;;;;;-0.79;72.68;96468.06;5095549;28;20048;-70
2020/12/04 06:18:50;;;;;;;1999.90;999.90;;;;;;;-0.90;73.44;96457.94;5095614;28;20104;-70
2020/12/04 06:21:15;;;;;;;1999.90;999.90;;;;;;;-0.75;73.29;96466.78;5095452;28;20055;-70
2020/12/04 06:24:07;;;;;;;1999.90;999.90;;;;;;;-0.65;73.14;96473.63;5095470;28;20084;-70
2020/12/04 06:26:51;;;;;;;1999.90;999.90;;;;;;;-0.62;72.71;96468.13;5091509;28;20132;-70
2020/12/04 06:29:17;;;;;;;1999.90;999.90;;;;;;;-0.68;72.94;96460.00;5095342;28;20048;-69
2020/12/04 06:31:43;;;;;;;1999.90;999.90;;;;;;;-0.63;72.32;96450.94;5094062;28;20048;-70
2020/12/04 06:34:15;;;;;;;1999.90;999.90;;;;;;;-0.68;72.27;96461.78;5095415;28;20087;-70
2020/12/04 06:36:40;;;;;;;1999.90;999.90;;;;;;;-0.51;72.79;96454.91;5095355;28;20055;-70
2020/12/04 06:39:08;;;;;;;1999.90;999.90;;;;;;;-0.67;72.23;96453.06;5095236;28;20096;-70
2020/12/04 06:41:34;;;;;;;1999.90;999.90;;;;;;;-0.60;72.14;96466.22;5095105;28;20568;-70
2020/12/04 06:44:15;;;;;;;1999.90;999.90;;;;;;;-0.50;72.29;96478.09;5095272;28;20043;-70
2020/12/04 06:46:43;;;;;;;1999.90;999.90;;;;;;;-0.47;72.54;96470.97;5095077;28;20048;-70
2020/12/04 06:49:35;;;;;;;1999.90;999.90;;;;;;;-0.50;72.35;96479.88;5095008;28;20048;-70
2020/12/04 06:52:13;;;;;;;1999.90;999.90;;;;;;;-0.48;72.00;96487.50;5083919;28;20130;-70
2020/12/04 06:54:42;;;;;;;1999.90;999.90;;;;;;;-0.42;72.39;96482.50;5094575;28;20127;-70
2020/12/04 06:57:08;;;;;;;1999.90;999.90;;;;;;;-0.35;72.32;96475.75;5094891;28;20047;-70
2020/12/04 06:59:39;;;;;;;1999.90;999.90;;;;;;;-0.42;71.88;96479.91;5094479;28;20078;-69
2020/12/04 07:02:04;;;;;;;1999.90;999.90;;;;;;;-0.49;71.93;96473.72;5094576;28;20043;-70
2020/12/04 07:04:31;;;;;;;1999.90;999.90;;;;;;;-0.42;72.35;96479.91;5094631;28;20044;-70
2020/12/04 07:07:08;;;;;;;1999.90;999.90;;;;;;;-0.34;72.74;96481.72;5094555;28;20051;-70
2020/12/04 07:09:34;;;;;;;1999.90;999.90;;;;;;;-0.24;71.93;96484.22;5094275;28;20115;-69
2020/12/04 07:12:01;;;;;;;1999.90;999.90;;;;;;;-0.24;71.77;96487.63;5094493;28;20036;-70
2020/12/04 07:14:27;;;;;;;1999.90;999.90;;;;;;;-0.24;71.48;96473.84;5094211;28;20121;-70
2020/12/04 07:16:54;;;;;;;1999.90;999.90;;;;;;;-0.09;71.05;96474.88;5094072;28;20039;-70
2020/12/04 07:19:20;;;;;;;1999.90;999.90;;;;;;;-0.51;71.46;96486.03;5094320;28;20072;-70
2020/12/04 07:21:46;;;;;;;1999.90;999.90;;;;;;;-0.54;71.56;96474.19;5093966;28;20051;-70
2020/12/04 07:24:11;;;;;;;1999.90;999.90;;;;;;;-0.38;71.64;96481.22;5094425;28;20028;-70
2020/12/04 07:26:39;;;;;;;1999.90;999.90;;;;;;;-0.36;71.37;96489.66;5094662;28;20039;-70
2020/12/04 07:29:05;;;;;;;1999.90;999.90;;;;;;;-0.69;71.87;96484.31;5094251;28;20036;-70
2020/12/04 07:31:30;;;;;;;1999.90;999.90;;;;;;;-0.64;72.16;96490.81;5097241;28;20067;-70
2020/12/04 07:33:58;;;;;;;1999.90;999.90;;;;;;;-0.49;71.85;96499.66;5096529;28;20031;-70
2020/12/04 07:36:25;;;;;;;1999.90;999.90;;;;;;;-0.61;72.78;96495.69;5094428;28;20044;-70
2020/12/04 07:38:53;;;;;;;1999.90;999.90;;;;;;;-0.42;72.34;96479.91;5094379;28;20393;-69
2020/12/04 07:41:29;;;;;;;1999.90;999.90;;;;;;;-0.37;71.79;96490.63;5094009;28;20089;-70
2020/12/04 07:44:05;;;;;;;1999.90;999.90;;;;;;;-0.31;72.04;96496.16;5093671;28;20042;-70
2020/12/04 07:46:30;;;;;;;;;;;;;;;-0.28;71.86;96496.69;5094476;28;20036;-70
2020/12/04 07:49:07;;;;;;;1999.90;999.90;;;;;;;-0.25;72.44;96500.75;5094109;28;19915;-70
2020/12/04 07:51:43;;;;;;;1999.90;999.90;;;;;;;-0.17;71.29;96504.19;5093871;28;20043;-70
2020/12/04 07:54:22;;;;;;;1999.90;999.90;;;;;;;-0.21;71.77;96507.25;5093900;28;20040;-70
2020/12/04 07:56:53;;;;;;;1999.90;999.90;;;;;;;-0.11;70.60;96497.56;5100540;28;20421;-70
2020/12/04 07:59:26;;;;;;;1999.90;999.90;;;;;;;-0.34;71.43;96498.13;5093756;28;20055;-69
2020/12/04 08:01:52;;;;;;;1999.90;999.90;;;;;;;-0.49;71.84;96504.84;5093641;28;20051;-70
2020/12/04 08:04:18;;;;;;;1999.90;999.90;;;;;;;-0.56;72.45;96507.22;5093671;28;20063;-70
2020/12/04 08:06:48;;;;;;;1999.90;999.90;;;;;;;-0.34;72.10;96507.66;5093513;28;20071;-70
2020/12/04 08:09:19;;;;;;;1999.90;999.90;;;;;;;-0.21;71.91;96496.88;5093459;28;20122;-69
2020/12/04 08:11:54;;;;;;;1999.90;999.90;;;;;;;-0.22;71.31;96501.25;5093651;28;20130;-70
2020/12/04 08:14:27;;;;;;;1999.90;999.90;;;;;;;-0.23;71.85;96511.78;5092107;28;20047;-70
2020/12/04 08:16:58;;;;;;;1999.90;999.90;;;;;;;-0.46;70.98;96509.72;5093252;28;20586;-70
2020/12/04 08:19:31;;;;;;;1999.90;999.90;;;;;;;-0.37;71.01;96497.63;5093259;28;20075;-69
2020/12/04 08:21:57;;;;;;;1999.90;999.90;;;;;;;-0.43;70.74;96503.41;5092952;28;20466;-70
2020/12/04 08:24:25;;;;;;;1999.90;999.90;;;;;;;-0.40;70.90;96503.91;5093011;28;20043;-70
2020/12/04 08:27:06;;;;;;;1999.90;999.90;;;;;;;-0.29;70.53;96494.25;5075030;28;20044;-70
2020/12/04 08:29:32;;;;;;;1999.90;999.90;;;;;;;-0.24;70.05;96502.38;5092840;28;20563;-69
2020/12/04 08:32:18;;;;;;;1999.90;999.90;;;;;;;-0.24;70.80;96499.78;5092992;28;20063;-70
2020/12/04 08:34:44;;;;;;;1999.90;999.90;;;;;;;-0.18;70.65;96501.78;5092850;28;20058;-70
2020/12/04 08:37:12;;;;;;;1999.90;999.90;;;;;;;-0.19;70.37;96492.34;5093031;28;20048;-70
2020/12/04 08:39:43;;;;;;;1999.90;999.90;;;;;;;-0.13;70.29;96489.16;5092631;28;20123;-70
2020/12/04 08:42:15;;;;;;;1999.90;999.90;;;;;;;-0.02;70.22;96486.25;5092794;28;20052;-69
2020/12/04 08:44:53;;;;;;;1999.90;999.90;;;;;;;0.01;70.44;96486.91;5092983;28;20101;-70
2020/12/04 08:47:29;;;;;;;1999.90;999.90;;;;;;;0.09;69.48;96492.13;5092813;28;20122;-70
2020/12/04 08:49:55;;;;;;;1999.90;999.90;;;;;;;0.10;69.58;96493.75;5092558;28;20040;-69
2020/12/04 08:52:54;;;;;;;1999.90;999.90;;;;;;;0.14;69.92;96464.75;5092788;28;20052;-70
2020/12/04 08:55:25;;;;;;;1999.90;999.90;;;;;;;0.04;70.92;96473.63;5094911;28;20052;-70
2020/12/04 08:57:53;;;;;;;1999.90;999.90;;;;;;;0.15;70.10;96470.75;5096918;28;20050;-70
2020/12/04 09:00:21;;;;;;;1999.90;999.90;;;;;;;0.19;70.30;96464.25;5103733;28;20073;-70
2020/12/04 09:02:46;;;;;;;1999.90;999.90;;;;;;;0.30;69.62;96451.00;5079778;28;20048;-70
2020/12/04 09:05:14;;;;;;;1999.90;999.90;;;;;;;0.20;70.73;96457.31;5096859;28;20058;-70
2020/12/04 09:07:40;;;;;;;1999.90;999.90;;;;;;;0.29;69.93;96466.72;5096758;28;20048;-70
2020/12/04 09:10:08;;;;;;;1999.90;999.90;;;;;;;0.36;69.96;96446.13;5096604;28;20052;-69
2020/12/04 09:12:34;;;;;;;1999.90;999.90;;;;;;;0.44;69.57;96459.13;5096773;28;20048;-70
2020/12/04 09:14:59;;;;;;;1999.90;999.90;;;;;;;0.44;69.04;96451.34;5096557;28;20055;-70
2020/12/04 09:17:25;;;;;;;1999.90;999.90;;;;;;;0.28;69.06;96449.53;5096564;28;20500;-70
2020/12/04 09:19:50;;;;;;;1999.90;999.90;;;;;;;0.30;68.81;96448.41;5096501;28;20051;-69
2020/12/04 09:22:16;;;;;;;1999.90;999.90;;;;;;;0.23;69.85;96452.59;5096569;28;20044;-70
2020/12/04 09:24:42;;;;;;;1999.90;999.90;;;;;;;0.27;69.75;96435.75;5097016;28;20040;-70
2020/12/04 09:27:08;;;;;;;1999.90;999.90;;;;;;;0.16;70.63;96430.84;5096602;28;20044;-70
2020/12/04 09:29:35;;;;;;;1999.90;999.90;;;;;;;0.25;71.00;96445.47;5096434;28;20040;-69
2020/12/04 09:32:12;;;;;;;1999.90;999.90;;;;;;;0.44;69.67;96441.78;5096661;28;20040;-70
2020/12/04 09:34:38;;;;;;;1999.90;999.90;;;;;;;0.48;70.05;96437.09;5096660;28;20075;-70
2020/12/04 09:37:23;;;;;;;1999.90;999.90;;;;;;;0.58;70.20;96434.31;5096597;28;20044;-70
2020/12/04 09:39:55;;;;;;;1999.90;999.90;;;;;;;0.56;70.50;96437.06;5103013;28;20043;-69
2020/12/04 09:42:23;;;;;;;1999.90;999.90;;;;;;;0.52;70.24;96430.59;5096632;28;20036;-70
2020/12/04 09:44:49;;;;;;;1999.90;999.90;;;;;;;0.55;70.02;96425.06;5096287;28;20405;-70
2020/12/04 09:47:16;;;;;;;1999.90;999.90;;;;;;;0.57;70.17;96428.31;5096241;28;20192;-70
2020/12/04 09:49:43;;;;;;;1999.90;999.90;;;;;;;0.55;70.13;96424.25;5096052;28;20040;-70
2020/12/04 09:52:09;;;;;;;1999.90;999.90;;;;;;;0.64;70.07;96424.09;5095872;28;20555;-70
2020/12/04 09:54:36;;;;;;;1999.90;999.90;;;;;;;0.62;70.26;96422.63;5095693;28;20516;-70
2020/12/04 09:57:04;;;;;;;1999.90;999.90;;;;;;;0.72;69.75;96414.69;5095703;28;20524;-70
2020/12/04 09:59:30;;;;;;;1999.90;999.90;;;;;;;0.76;68.87;96410.78;5095481;28;20051;-69
2020/12/04 10:01:56;;;;;;;1999.90;999.90;;;;;;;0.69;69.23;96417.59;5095588;28;20122;-69
2020/12/04 10:04:23;;;;;;;1999.90;999.90;;;;;;;0.75;68.97;96415.19;5095645;28;20126;-70
2020/12/04 10:06:49;;;;;;;1999.90;999.90;;;;;;;0.69;69.15;96423.59;5095371;28;20420;-70
2020/12/04 10:09:14;;;;;;;1999.90;999.90;;;;;;;0.61;69.38;96418.44;5095407;28;20055;-70
2020/12/04 10:11:41;;;;;;;1999.90;999.90;;;;;;;-0.10;70.97;96425.75;5095379;28;20407;-70
2020/12/04 10:14:07;;;;;;;1999.90;999.90;;;;;;;-0.15;71.79;96422.81;5095642;28;20073;-70
2020/12/04 10:16:32;;;;;;;1999.90;999.90;;;;;;;-0.39;72.69;96429.53;5095305;28;20044;-70
2020/12/04 10:18:58;;;;;;;1999.90;999.90;;;;;;;-0.31;72.53;96436.53;5095352;28;20087;-69
2020/12/04 10:21:25;;;;;;;1999.90;999.90;;;;;;;-0.23;72.51;96431.38;5095358;28;20052;-70
2020/12/04 10:23:51;;;;;;;1999.90;999.90;;;;;;;-0.13;72.93;96424.28;5095552;28;20047;-70
2020/12/04 10:26:16;;;;;;;1999.90;999.90;;;;;;;-0.20;72.36;96421.50;5095930;28;20048;-70
2020/12/04 10:28:42;;;;;;;1999.90;999.90;;;;;;;-0.35;73.15;96405.72;5101080;28;20134;-69
2020/12/04 10:31:07;;;;;;;1999.90;999.90;;;;;;;-0.53;73.26;96417.94;5095416;28;20078;-70
2020/12/04 10:33:33;;;;;;;1999.90;999.90;;;;;;;-0.21;72.66;96408.69;5095326;28;20044;-70
2020/12/04 10:36:01;;;;;;;1999.90;999.90;;;;;;;-0.10;72.27;96416.19;5095257;28;20082;-70
2020/12/04 10:38:27;;;;;;;1999.90;999.90;;;;;;;-0.59;74.02;96421.19;5095570;28;20097;-70
2020/12/04 10:40:52;;;;;;;1999.90;999.90;;;;;;;-0.60;74.57;96429.94;5095253;28;20043;-70
2020/12/04 10:43:17;;;;;;;1999.90;999.90;;;;;;;-0.23;73.55;96418.44;5095396;28;20451;-70
2020/12/04 10:45:43;;;;;;;1999.90;999.90;;;;;;;-0.13;73.46;96426.06;5095101;28;20413;-70
2020/12/04 10:48:08;;;;;;;1999.90;999.90;;;;;;;-0.17;73.17;96417.78;5095002;28;20040;-70
2020/12/04 10:50:34;;;;;;;1999.90;999.90;;;;;;;-0.16;73.11;96416.81;5094869;28;20078;-69
2020/12/04 10:52:59;;;;;;;1999.90;999.90;;;;;;;-0.06;73.58;96417.50;5095032;28;20040;-70
2020/12/04 10:55:25;;;;;;;1999.90;999.90;;;;;;;0.08;72.74;96413.47;5094734;28;20112;-70
2020/12/04 10:57:50;;;;;;;1999.90;999.90;;;;;;;0.10;72.67;96415.91;5094922;28;20409;-70
2020/12/04 11:00:15;;;;;;;1999.90;999.90;;;;;;;-0.02;73.17;96403.22;5095022;28;20416;-70